sensor_id;sensor_type;location;lat;lon;timestamp;P1;durP1;ratioP1;P2;durP2;ratioP2
55469;SDS011;41334;47.872;16.384;2022-07-25T00:00:31;5.55;;;4.95;;
55469;SDS011;41334;47.872;16.384;2022-07-25T00:03:33;7.65;;;5.07;;
55469;SDS011;41334;47.872;16.384;2022-07-25T00:06:35;5.90;;;5.18;;
55469;SDS011;41334;47.872;16.384;2022-07-25T00:09:37;5.95;;;5.00;;
55469;SDS011;41334;47.872;16.384;2022-07-25T00:12:38;5.70;;;4.95;;
55469;SDS011;41334;47.872;16.384;2022-07-25T00:15:40;7.35;;;5.28;;
55469;SDS011;41334;47.872;16.384;2022-07-25T00:18:42;6.55;;;5.20;;
55469;SDS011;41334;47.872;16.384;2022-07-25T00:21:44;8.15;;;5.43;;
55469;SDS011;41334;47.872;16.384;2022-07-25T00:24:46;7.50;;;5.13;;
55469;SDS011;41334;47.872;16.384;2022-07-25T00:27:47;5.78;;;4.80;;
55469;SDS011;41334;47.872;16.384;2022-07-25T00:30:49;5.38;;;4.50;;
55469;SDS011;41334;47.872;16.384;2022-07-25T00:33:51;7.47;;;5.00;;
55469;SDS011;41334;47.872;16.384;2022-07-25T00:36:53;9.07;;;4.75;;
55469;SDS011;41334;47.872;16.384;2022-07-25T00:39:54;6.70;;;4.47;;
55469;SDS011;41334;47.872;16.384;2022-07-25T00:42:56;6.45;;;4.82;;
55469;SDS011;41334;47.872;16.384;2022-07-25T00:45:58;6.13;;;4.93;;
55469;SDS011;41334;47.872;16.384;2022-07-25T00:49:00;6.88;;;4.80;;
55469;SDS011;41334;47.872;16.384;2022-07-25T00:52:02;5.63;;;4.50;;
55469;SDS011;41334;47.872;16.384;2022-07-25T00:55:05;6.15;;;4.53;;
55469;SDS011;41334;47.872;16.384;2022-07-25T00:58:07;8.23;;;4.60;;
55469;SDS011;41334;47.872;16.384;2022-07-25T01:01:09;8.90;;;4.93;;
55469;SDS011;41334;47.872;16.384;2022-07-25T01:04:11;5.80;;;4.65;;
55469;SDS011;41334;47.872;16.384;2022-07-25T01:07:12;6.53;;;4.45;;
55469;SDS011;41334;47.872;16.384;2022-07-25T01:10:15;7.72;;;4.43;;
55469;SDS011;41334;47.872;16.384;2022-07-25T01:13:17;5.15;;;4.28;;
55469;SDS011;41334;47.872;16.384;2022-07-25T01:16:21;5.70;;;4.25;;
55469;SDS011;41334;47.872;16.384;2022-07-25T01:19:22;6.57;;;4.72;;
55469;SDS011;41334;47.872;16.384;2022-07-25T01:22:24;6.43;;;4.55;;
55469;SDS011;41334;47.872;16.384;2022-07-25T01:25:26;6.78;;;4.57;;
55469;SDS011;41334;47.872;16.384;2022-07-25T01:28:28;7.22;;;5.15;;
55469;SDS011;41334;47.872;16.384;2022-07-25T01:31:30;6.47;;;4.35;;
55469;SDS011;41334;47.872;16.384;2022-07-25T01:34:32;7.70;;;4.50;;
55469;SDS011;41334;47.872;16.384;2022-07-25T01:37:34;6.00;;;5.05;;
55469;SDS011;41334;47.872;16.384;2022-07-25T01:40:36;5.65;;;4.40;;
55469;SDS011;41334;47.872;16.384;2022-07-25T01:43:39;6.18;;;4.32;;
55469;SDS011;41334;47.872;16.384;2022-07-25T01:46:41;5.55;;;4.20;;
55469;SDS011;41334;47.872;16.384;2022-07-25T01:49:42;5.45;;;4.50;;
55469;SDS011;41334;47.872;16.384;2022-07-25T01:52:44;8.13;;;4.45;;
55469;SDS011;41334;47.872;16.384;2022-07-25T01:55:46;5.70;;;4.35;;
55469;SDS011;41334;47.872;16.384;2022-07-25T01:58:48;6.13;;;3.92;;
55469;SDS011;41334;47.872;16.384;2022-07-25T02:01:50;5.45;;;4.28;;
55469;SDS011;41334;47.872;16.384;2022-07-25T02:04:52;5.50;;;4.38;;
55469;SDS011;41334;47.872;16.384;2022-07-25T02:07:54;6.47;;;4.47;;
55469;SDS011;41334;47.872;16.384;2022-07-25T02:10:56;6.13;;;4.30;;
55469;SDS011;41334;47.872;16.384;2022-07-25T02:13:58;5.40;;;3.80;;
55469;SDS011;41334;47.872;16.384;2022-07-25T02:17:00;8.25;;;5.00;;
55469;SDS011;41334;47.872;16.384;2022-07-25T02:20:02;6.20;;;4.03;;
55469;SDS011;41334;47.872;16.384;2022-07-25T02:23:04;6.50;;;3.85;;
55469;SDS011;41334;47.872;16.384;2022-07-25T02:26:06;6.75;;;4.75;;
55469;SDS011;41334;47.872;16.384;2022-07-25T02:29:08;7.00;;;4.38;;
55469;SDS011;41334;47.872;16.384;2022-07-25T02:32:10;9.73;;;4.80;;
55469;SDS011;41334;47.872;16.384;2022-07-25T02:35:11;8.43;;;4.45;;
55469;SDS011;41334;47.872;16.384;2022-07-25T02:38:13;7.28;;;4.15;;
55469;SDS011;41334;47.872;16.384;2022-07-25T02:41:21;5.22;;;4.10;;
55469;SDS011;41334;47.872;16.384;2022-07-25T02:44:23;7.65;;;4.22;;
55469;SDS011;41334;47.872;16.384;2022-07-25T02:47:25;8.05;;;4.40;;
55469;SDS011;41334;47.872;16.384;2022-07-25T02:50:27;9.48;;;4.20;;
55469;SDS011;41334;47.872;16.384;2022-07-25T02:53:29;6.25;;;4.50;;
55469;SDS011;41334;47.872;16.384;2022-07-25T02:56:51;6.40;;;4.40;;
55469;SDS011;41334;47.872;16.384;2022-07-25T02:59:52;6.95;;;4.50;;
55469;SDS011;41334;47.872;16.384;2022-07-25T03:02:54;7.05;;;5.10;;
55469;SDS011;41334;47.872;16.384;2022-07-25T03:05:58;5.25;;;4.20;;
55469;SDS011;41334;47.872;16.384;2022-07-25T03:09:00;7.57;;;4.88;;
55469;SDS011;41334;47.872;16.384;2022-07-25T03:12:02;6.53;;;4.43;;
55469;SDS011;41334;47.872;16.384;2022-07-25T03:15:04;5.45;;;4.53;;
55469;SDS011;41334;47.872;16.384;2022-07-25T03:18:07;8.70;;;4.88;;
55469;SDS011;41334;47.872;16.384;2022-07-25T03:21:11;6.10;;;4.60;;
55469;SDS011;41334;47.872;16.384;2022-07-25T03:24:13;6.60;;;4.75;;
55469;SDS011;41334;47.872;16.384;2022-07-25T03:27:15;6.18;;;4.47;;
55469;SDS011;41334;47.872;16.384;2022-07-25T03:30:17;6.70;;;5.00;;
55469;SDS011;41334;47.872;16.384;2022-07-25T03:33:19;5.82;;;3.70;;
55469;SDS011;41334;47.872;16.384;2022-07-25T03:36:21;6.90;;;4.47;;
55469;SDS011;41334;47.872;16.384;2022-07-25T03:39:22;5.78;;;4.38;;
55469;SDS011;41334;47.872;16.384;2022-07-25T03:42:25;11.63;;;4.85;;
55469;SDS011;41334;47.872;16.384;2022-07-25T03:45:27;6.13;;;4.60;;
55469;SDS011;41334;47.872;16.384;2022-07-25T03:48:29;5.85;;;4.40;;
55469;SDS011;41334;47.872;16.384;2022-07-25T03:51:31;6.50;;;4.40;;
55469;SDS011;41334;47.872;16.384;2022-07-25T03:54:33;7.50;;;4.40;;
55469;SDS011;41334;47.872;16.384;2022-07-25T03:57:35;7.32;;;4.30;;
55469;SDS011;41334;47.872;16.384;2022-07-25T04:00:37;5.88;;;4.70;;
55469;SDS011;41334;47.872;16.384;2022-07-25T04:03:39;7.05;;;5.10;;
55469;SDS011;41334;47.872;16.384;2022-07-25T04:06:41;7.80;;;4.93;;
55469;SDS011;41334;47.872;16.384;2022-07-25T04:09:43;7.32;;;5.00;;
55469;SDS011;41334;47.872;16.384;2022-07-25T04:12:44;8.98;;;4.60;;
55469;SDS011;41334;47.872;16.384;2022-07-25T04:15:46;8.27;;;4.93;;
55469;SDS011;41334;47.872;16.384;2022-07-25T04:18:48;7.53;;;4.53;;
55469;SDS011;41334;47.872;16.384;2022-07-25T04:21:52;7.47;;;4.80;;
55469;SDS011;41334;47.872;16.384;2022-07-25T04:24:53;6.15;;;4.75;;
55469;SDS011;41334;47.872;16.384;2022-07-25T04:27:55;6.95;;;4.15;;
55469;SDS011;41334;47.872;16.384;2022-07-25T04:30:57;6.80;;;4.63;;
55469;SDS011;41334;47.872;16.384;2022-07-25T04:33:59;7.18;;;4.53;;
55469;SDS011;41334;47.872;16.384;2022-07-25T04:37:01;5.20;;;4.45;;
55469;SDS011;41334;47.872;16.384;2022-07-25T04:40:03;6.72;;;4.28;;
55469;SDS011;41334;47.872;16.384;2022-07-25T04:43:06;6.43;;;4.35;;
55469;SDS011;41334;47.872;16.384;2022-07-25T04:46:08;6.50;;;4.65;;
55469;SDS011;41334;47.872;16.384;2022-07-25T04:49:10;7.63;;;4.68;;
55469;SDS011;41334;47.872;16.384;2022-07-25T04:52:12;5.35;;;4.05;;
55469;SDS011;41334;47.872;16.384;2022-07-25T04:55:14;8.48;;;4.72;;
55469;SDS011;41334;47.872;16.384;2022-07-25T04:58:17;6.65;;;4.50;;
55469;SDS011;41334;47.872;16.384;2022-07-25T05:01:19;5.63;;;4.03;;
55469;SDS011;41334;47.872;16.384;2022-07-25T05:04:21;6.03;;;4.35;;
55469;SDS011;41334;47.872;16.384;2022-07-25T05:07:23;7.82;;;4.60;;
55469;SDS011;41334;47.872;16.384;2022-07-25T05:10:27;8.95;;;4.53;;
55469;SDS011;41334;47.872;16.384;2022-07-25T05:13:29;6.70;;;4.32;;
55469;SDS011;41334;47.872;16.384;2022-07-25T05:16:31;6.75;;;4.00;;
55469;SDS011;41334;47.872;16.384;2022-07-25T05:19:33;4.18;;;3.22;;
55469;SDS011;41334;47.872;16.384;2022-07-25T05:22:35;5.57;;;3.42;;
55469;SDS011;41334;47.872;16.384;2022-07-25T05:25:37;4.03;;;2.97;;
55469;SDS011;41334;47.872;16.384;2022-07-25T05:28:39;6.15;;;3.00;;
55469;SDS011;41334;47.872;16.384;2022-07-25T05:31:41;7.40;;;3.53;;
55469;SDS011;41334;47.872;16.384;2022-07-25T05:34:43;5.28;;;3.30;;
55469;SDS011;41334;47.872;16.384;2022-07-25T05:37:45;5.82;;;3.15;;
55469;SDS011;41334;47.872;16.384;2022-07-25T05:40:49;6.82;;;2.97;;
55469;SDS011;41334;47.872;16.384;2022-07-25T05:43:52;4.35;;;2.92;;
55469;SDS011;41334;47.872;16.384;2022-07-25T05:46:54;6.35;;;3.08;;
55469;SDS011;41334;47.872;16.384;2022-07-25T05:49:56;4.20;;;2.75;;
55469;SDS011;41334;47.872;16.384;2022-07-25T05:52:57;4.93;;;2.50;;
55469;SDS011;41334;47.872;16.384;2022-07-25T05:55:59;5.22;;;3.35;;
55469;SDS011;41334;47.872;16.384;2022-07-25T05:59:01;7.75;;;3.00;;
55469;SDS011;41334;47.872;16.384;2022-07-25T06:02:03;8.88;;;2.85;;
55469;SDS011;41334;47.872;16.384;2022-07-25T06:05:05;5.03;;;2.85;;
55469;SDS011;41334;47.872;16.384;2022-07-25T06:08:07;4.35;;;2.50;;
55469;SDS011;41334;47.872;16.384;2022-07-25T06:11:09;4.38;;;2.00;;
55469;SDS011;41334;47.872;16.384;2022-07-25T06:14:11;3.10;;;2.30;;
55469;SDS011;41334;47.872;16.384;2022-07-25T06:17:13;4.85;;;2.30;;
55469;SDS011;41334;47.872;16.384;2022-07-25T06:20:15;5.95;;;1.88;;
55469;SDS011;41334;47.872;16.384;2022-07-25T06:23:17;4.50;;;2.40;;
55469;SDS011;41334;47.872;16.384;2022-07-25T06:26:22;2.72;;;1.50;;
55469;SDS011;41334;47.872;16.384;2022-07-25T06:29:25;5.10;;;2.33;;
55469;SDS011;41334;47.872;16.384;2022-07-25T06:32:27;3.63;;;2.25;;
55469;SDS011;41334;47.872;16.384;2022-07-25T06:35:28;4.10;;;2.33;;
55469;SDS011;41334;47.872;16.384;2022-07-25T06:38:30;4.47;;;2.45;;
55469;SDS011;41334;47.872;16.384;2022-07-25T06:41:32;3.28;;;2.00;;
55469;SDS011;41334;47.872;16.384;2022-07-25T06:44:34;6.30;;;1.95;;
55469;SDS011;41334;47.872;16.384;2022-07-25T06:47:37;4.35;;;2.30;;
55469;SDS011;41334;47.872;16.384;2022-07-25T06:50:39;4.38;;;2.50;;
55469;SDS011;41334;47.872;16.384;2022-07-25T06:53:41;3.63;;;2.30;;
55469;SDS011;41334;47.872;16.384;2022-07-25T06:56:44;5.82;;;2.35;;
55469;SDS011;41334;47.872;16.384;2022-07-25T06:59:46;5.43;;;2.38;;
55469;SDS011;41334;47.872;16.384;2022-07-25T07:02:58;4.57;;;2.33;;
55469;SDS011;41334;47.872;16.384;2022-07-25T07:06:04;4.97;;;2.45;;
55469;SDS011;41334;47.872;16.384;2022-07-25T07:09:06;3.53;;;2.15;;
55469;SDS011;41334;47.872;16.384;2022-07-25T07:12:09;5.28;;;2.42;;
55469;SDS011;41334;47.872;16.384;2022-07-25T07:15:11;5.18;;;2.20;;
55469;SDS011;41334;47.872;16.384;2022-07-25T07:18:13;4.55;;;2.38;;
55469;SDS011;41334;47.872;16.384;2022-07-25T07:21:15;4.43;;;2.70;;
55469;SDS011;41334;47.872;16.384;2022-07-25T07:24:21;4.38;;;2.22;;
55469;SDS011;41334;47.872;16.384;2022-07-25T07:27:25;3.53;;;2.53;;
55469;SDS011;41334;47.872;16.384;2022-07-25T07:30:26;3.92;;;2.20;;
55469;SDS011;41334;47.872;16.384;2022-07-25T07:33:48;4.53;;;2.35;;
55469;SDS011;41334;47.872;16.384;2022-07-25T07:36:50;5.15;;;2.28;;
55469;SDS011;41334;47.872;16.384;2022-07-25T07:39:52;3.40;;;2.60;;
55469;SDS011;41334;47.872;16.384;2022-07-25T07:42:54;3.95;;;2.60;;
55469;SDS011;41334;47.872;16.384;2022-07-25T07:45:58;5.25;;;2.30;;
55469;SDS011;41334;47.872;16.384;2022-07-25T07:49:01;5.43;;;2.90;;
55469;SDS011;41334;47.872;16.384;2022-07-25T07:52:04;4.63;;;2.58;;
55469;SDS011;41334;47.872;16.384;2022-07-25T07:55:06;5.85;;;2.30;;
55469;SDS011;41334;47.872;16.384;2022-07-25T07:58:27;3.90;;;2.63;;
55469;SDS011;41334;47.872;16.384;2022-07-25T08:01:30;4.00;;;2.40;;
55469;SDS011;41334;47.872;16.384;2022-07-25T08:04:32;4.32;;;2.45;;
55469;SDS011;41334;47.872;16.384;2022-07-25T08:07:33;6.35;;;2.33;;
55469;SDS011;41334;47.872;16.384;2022-07-25T08:10:36;4.38;;;2.50;;
55469;SDS011;41334;47.872;16.384;2022-07-25T08:13:42;5.63;;;2.80;;
55469;SDS011;41334;47.872;16.384;2022-07-25T08:16:44;9.68;;;2.60;;
55469;SDS011;41334;47.872;16.384;2022-07-25T08:19:46;6.05;;;2.78;;
55469;SDS011;41334;47.872;16.384;2022-07-25T08:22:48;6.50;;;2.80;;
55469;SDS011;41334;47.872;16.384;2022-07-25T08:25:56;3.58;;;2.70;;
55469;SDS011;41334;47.872;16.384;2022-07-25T08:28:58;3.83;;;2.63;;
55469;SDS011;41334;47.872;16.384;2022-07-25T08:32:18;4.03;;;3.38;;
55469;SDS011;41334;47.872;16.384;2022-07-25T08:35:20;6.60;;;3.10;;
55469;SDS011;41334;47.872;16.384;2022-07-25T08:38:24;4.63;;;3.25;;
55469;SDS011;41334;47.872;16.384;2022-07-25T08:41:27;9.65;;;3.15;;
55469;SDS011;41334;47.872;16.384;2022-07-25T08:44:30;4.03;;;3.13;;
55469;SDS011;41334;47.872;16.384;2022-07-25T08:47:38;5.38;;;3.33;;
55469;SDS011;41334;47.872;16.384;2022-07-25T08:50:41;5.18;;;3.10;;
55469;SDS011;41334;47.872;16.384;2022-07-25T08:53:43;3.83;;;2.33;;
55469;SDS011;41334;47.872;16.384;2022-07-25T08:56:49;5.47;;;3.00;;
55469;SDS011;41334;47.872;16.384;2022-07-25T08:59:51;5.13;;;3.30;;
55469;SDS011;41334;47.872;16.384;2022-07-25T09:02:57;4.65;;;3.22;;
55469;SDS011;41334;47.872;16.384;2022-07-25T09:06:01;5.53;;;3.15;;
55469;SDS011;41334;47.872;16.384;2022-07-25T09:09:14;3.72;;;2.95;;
55469;SDS011;41334;47.872;16.384;2022-07-25T09:12:16;4.47;;;3.20;;
55469;SDS011;41334;47.872;16.384;2022-07-25T09:15:27;6.90;;;3.67;;
55469;SDS011;41334;47.872;16.384;2022-07-25T09:18:31;4.13;;;3.35;;
55469;SDS011;41334;47.872;16.384;2022-07-25T09:21:34;5.95;;;3.10;;
55469;SDS011;41334;47.872;16.384;2022-07-25T09:24:35;5.47;;;2.90;;
55469;SDS011;41334;47.872;16.384;2022-07-25T09:27:37;7.57;;;3.10;;
55469;SDS011;41334;47.872;16.384;2022-07-25T09:30:39;4.38;;;3.00;;
55469;SDS011;41334;47.872;16.384;2022-07-25T09:33:53;5.20;;;3.38;;
55469;SDS011;41334;47.872;16.384;2022-07-25T09:36:57;5.13;;;3.20;;
55469;SDS011;41334;47.872;16.384;2022-07-25T09:39:59;6.25;;;2.90;;
55469;SDS011;41334;47.872;16.384;2022-07-25T09:43:01;6.03;;;2.53;;
55469;SDS011;41334;47.872;16.384;2022-07-25T09:46:02;3.70;;;2.50;;
55469;SDS011;41334;47.872;16.384;2022-07-25T09:49:05;9.60;;;2.85;;
55469;SDS011;41334;47.872;16.384;2022-07-25T09:52:10;6.60;;;2.70;;
55469;SDS011;41334;47.872;16.384;2022-07-25T09:55:12;4.93;;;2.60;;
55469;SDS011;41334;47.872;16.384;2022-07-25T09:58:16;6.53;;;2.85;;
55469;SDS011;41334;47.872;16.384;2022-07-25T10:01:19;3.05;;;2.40;;
55469;SDS011;41334;47.872;16.384;2022-07-25T10:04:29;7.40;;;2.58;;
55469;SDS011;41334;47.872;16.384;2022-07-25T10:07:55;4.18;;;2.75;;
55469;SDS011;41334;47.872;16.384;2022-07-25T10:10:57;3.28;;;2.67;;
55469;SDS011;41334;47.872;16.384;2022-07-25T10:14:07;3.60;;;2.63;;
55469;SDS011;41334;47.872;16.384;2022-07-25T10:17:19;4.13;;;2.97;;
55469;SDS011;41334;47.872;16.384;2022-07-25T10:20:26;3.53;;;2.97;;
55469;SDS011;41334;47.872;16.384;2022-07-25T10:23:29;8.65;;;2.97;;
55469;SDS011;41334;47.872;16.384;2022-07-25T10:26:31;3.35;;;2.75;;
55469;SDS011;41334;47.872;16.384;2022-07-25T10:29:35;4.85;;;2.80;;
55469;SDS011;41334;47.872;16.384;2022-07-25T10:32:38;7.45;;;3.03;;
55469;SDS011;41334;47.872;16.384;2022-07-25T10:36:05;5.72;;;3.25;;
55469;SDS011;41334;47.872;16.384;2022-07-25T10:39:09;7.05;;;2.92;;
55469;SDS011;41334;47.872;16.384;2022-07-25T10:42:13;3.95;;;3.35;;
55469;SDS011;41334;47.872;16.384;2022-07-25T10:45:17;4.75;;;3.10;;
55469;SDS011;41334;47.872;16.384;2022-07-25T10:48:23;3.10;;;2.70;;
55469;SDS011;41334;47.872;16.384;2022-07-25T10:51:28;4.45;;;3.35;;
55469;SDS011;41334;47.872;16.384;2022-07-25T10:54:33;4.25;;;2.90;;
55469;SDS011;41334;47.872;16.384;2022-07-25T10:57:36;5.77;;;3.10;;
55469;SDS011;41334;47.872;16.384;2022-07-25T11:00:55;4.25;;;2.95;;
55469;SDS011;41334;47.872;16.384;2022-07-25T11:04:01;4.03;;;3.03;;
55469;SDS011;41334;47.872;16.384;2022-07-25T11:07:09;4.00;;;3.10;;
55469;SDS011;41334;47.872;16.384;2022-07-25T11:10:12;6.85;;;3.67;;
55469;SDS011;41334;47.872;16.384;2022-07-25T11:13:14;4.45;;;3.00;;
55469;SDS011;41334;47.872;16.384;2022-07-25T11:16:16;5.40;;;2.80;;
55469;SDS011;41334;47.872;16.384;2022-07-25T11:19:27;4.55;;;2.80;;
55469;SDS011;41334;47.872;16.384;2022-07-25T11:22:29;3.75;;;2.90;;
55469;SDS011;41334;47.872;16.384;2022-07-25T11:25:33;6.80;;;3.10;;
55469;SDS011;41334;47.872;16.384;2022-07-25T11:28:39;4.15;;;3.20;;
55469;SDS011;41334;47.872;16.384;2022-07-25T11:31:53;3.70;;;3.40;;
55469;SDS011;41334;47.872;16.384;2022-07-25T11:38:02;3.38;;;3.08;;
55469;SDS011;41334;47.872;16.384;2022-07-25T11:41:06;6.50;;;3.60;;
55469;SDS011;41334;47.872;16.384;2022-07-25T11:44:08;6.25;;;3.75;;
55469;SDS011;41334;47.872;16.384;2022-07-25T11:50:30;4.75;;;3.30;;
55469;SDS011;41334;47.872;16.384;2022-07-25T11:53:37;3.50;;;3.20;;
55469;SDS011;41334;47.872;16.384;2022-07-25T11:56:41;3.40;;;3.10;;
55469;SDS011;41334;47.872;16.384;2022-07-25T11:59:45;4.82;;;3.75;;
55469;SDS011;41334;47.872;16.384;2022-07-25T12:02:47;4.30;;;3.65;;
55469;SDS011;41334;47.872;16.384;2022-07-25T12:05:50;4.32;;;3.90;;
55469;SDS011;41334;47.872;16.384;2022-07-25T12:08:52;5.30;;;3.70;;
55469;SDS011;41334;47.872;16.384;2022-07-25T12:12:00;6.40;;;3.75;;
55469;SDS011;41334;47.872;16.384;2022-07-25T12:15:03;4.10;;;3.55;;
55469;SDS011;41334;47.872;16.384;2022-07-25T12:18:08;4.63;;;3.88;;
55469;SDS011;41334;47.872;16.384;2022-07-25T12:21:12;7.57;;;4.03;;
55469;SDS011;41334;47.872;16.384;2022-07-25T12:24:14;5.00;;;4.00;;
55469;SDS011;41334;47.872;16.384;2022-07-25T12:27:16;4.90;;;4.03;;
55469;SDS011;41334;47.872;16.384;2022-07-25T12:30:18;4.97;;;3.78;;
55469;SDS011;41334;47.872;16.384;2022-07-25T12:33:20;4.13;;;3.72;;
55469;SDS011;41334;47.872;16.384;2022-07-25T12:36:21;5.50;;;3.90;;
55469;SDS011;41334;47.872;16.384;2022-07-25T12:39:23;3.80;;;3.40;;
55469;SDS011;41334;47.872;16.384;2022-07-25T12:42:25;4.35;;;3.55;;
55469;SDS011;41334;47.872;16.384;2022-07-25T12:45:29;5.60;;;3.78;;
55469;SDS011;41334;47.872;16.384;2022-07-25T12:48:31;5.10;;;3.90;;
55469;SDS011;41334;47.872;16.384;2022-07-25T12:51:33;6.57;;;4.03;;
55469;SDS011;41334;47.872;16.384;2022-07-25T12:54:34;4.85;;;3.88;;
55469;SDS011;41334;47.872;16.384;2022-07-25T12:57:37;6.40;;;3.50;;
55469;SDS011;41334;47.872;16.384;2022-07-25T13:00:39;4.30;;;3.90;;
55469;SDS011;41334;47.872;16.384;2022-07-25T13:03:41;4.65;;;4.13;;
55469;SDS011;41334;47.872;16.384;2022-07-25T13:06:42;4.25;;;3.30;;
55469;SDS011;41334;47.872;16.384;2022-07-25T13:09:44;4.45;;;4.00;;
55469;SDS011;41334;47.872;16.384;2022-07-25T13:12:46;9.63;;;3.97;;
55469;SDS011;41334;47.872;16.384;2022-07-25T13:15:48;3.85;;;3.53;;
55469;SDS011;41334;47.872;16.384;2022-07-25T13:18:50;4.60;;;4.07;;
55469;SDS011;41334;47.872;16.384;2022-07-25T13:21:52;11.98;;;4.18;;
55469;SDS011;41334;47.872;16.384;2022-07-25T13:24:54;4.10;;;3.70;;
55469;SDS011;41334;47.872;16.384;2022-07-25T13:27:56;4.50;;;3.60;;
55469;SDS011;41334;47.872;16.384;2022-07-25T13:30:58;4.72;;;3.75;;
55469;SDS011;41334;47.872;16.384;2022-07-25T13:34:02;4.43;;;3.50;;
55469;SDS011;41334;47.872;16.384;2022-07-25T13:37:04;4.80;;;3.70;;
55469;SDS011;41334;47.872;16.384;2022-07-25T13:40:06;4.45;;;4.03;;
55469;SDS011;41334;47.872;16.384;2022-07-25T13:43:10;4.50;;;4.00;;
55469;SDS011;41334;47.872;16.384;2022-07-25T13:46:13;4.68;;;4.05;;
55469;SDS011;41334;47.872;16.384;2022-07-25T13:49:15;4.95;;;4.10;;
55469;SDS011;41334;47.872;16.384;2022-07-25T13:52:18;8.68;;;3.92;;
55469;SDS011;41334;47.872;16.384;2022-07-25T13:55:20;5.85;;;3.97;;
55469;SDS011;41334;47.872;16.384;2022-07-25T13:58:21;4.78;;;4.18;;
55469;SDS011;41334;47.872;16.384;2022-07-25T14:01:23;7.30;;;4.13;;
55469;SDS011;41334;47.872;16.384;2022-07-25T14:04:28;4.75;;;3.92;;
55469;SDS011;41334;47.872;16.384;2022-07-25T14:07:31;4.43;;;4.00;;
55469;SDS011;41334;47.872;16.384;2022-07-25T14:10:34;4.75;;;4.18;;
55469;SDS011;41334;47.872;16.384;2022-07-25T14:13:36;4.80;;;4.22;;
55469;SDS011;41334;47.872;16.384;2022-07-25T14:16:38;5.53;;;4.38;;
55469;SDS011;41334;47.872;16.384;2022-07-25T14:19:40;5.93;;;4.18;;
55469;SDS011;41334;47.872;16.384;2022-07-25T14:22:42;5.40;;;4.40;;
55469;SDS011;41334;47.872;16.384;2022-07-25T14:25:44;4.97;;;4.15;;
55469;SDS011;41334;47.872;16.384;2022-07-25T14:28:46;4.97;;;4.47;;
55469;SDS011;41334;47.872;16.384;2022-07-25T14:31:48;5.07;;;4.28;;
55469;SDS011;41334;47.872;16.384;2022-07-25T14:34:50;4.78;;;4.28;;
55469;SDS011;41334;47.872;16.384;2022-07-25T14:37:52;7.82;;;4.47;;
55469;SDS011;41334;47.872;16.384;2022-07-25T14:40:54;6.70;;;4.35;;
55469;SDS011;41334;47.872;16.384;2022-07-25T14:43:56;5.20;;;4.43;;
55469;SDS011;41334;47.872;16.384;2022-07-25T14:46:58;4.90;;;4.22;;
55469;SDS011;41334;47.872;16.384;2022-07-25T14:50:00;7.53;;;4.45;;
55469;SDS011;41334;47.872;16.384;2022-07-25T14:53:02;4.90;;;4.40;;
55469;SDS011;41334;47.872;16.384;2022-07-25T14:56:04;5.78;;;4.22;;
55469;SDS011;41334;47.872;16.384;2022-07-25T14:59:07;5.50;;;4.70;;
55469;SDS011;41334;47.872;16.384;2022-07-25T15:02:09;5.90;;;4.63;;
55469;SDS011;41334;47.872;16.384;2022-07-25T15:05:11;5.47;;;4.75;;
55469;SDS011;41334;47.872;16.384;2022-07-25T15:08:13;10.00;;;4.53;;
55469;SDS011;41334;47.872;16.384;2022-07-25T15:11:15;6.55;;;4.88;;
55469;SDS011;41334;47.872;16.384;2022-07-25T15:14:17;7.57;;;4.68;;
55469;SDS011;41334;47.872;16.384;2022-07-25T15:17:19;7.35;;;4.25;;
55469;SDS011;41334;47.872;16.384;2022-07-25T15:20:21;5.07;;;4.38;;
55469;SDS011;41334;47.872;16.384;2022-07-25T15:23:23;5.18;;;4.68;;
55469;SDS011;41334;47.872;16.384;2022-07-25T15:26:28;5.45;;;4.90;;
55469;SDS011;41334;47.872;16.384;2022-07-25T15:29:29;8.02;;;4.75;;
55469;SDS011;41334;47.872;16.384;2022-07-25T15:32:31;6.13;;;4.93;;
55469;SDS011;41334;47.872;16.384;2022-07-25T15:35:33;8.23;;;4.68;;
55469;SDS011;41334;47.872;16.384;2022-07-25T15:38:35;6.38;;;4.40;;
55469;SDS011;41334;47.872;16.384;2022-07-25T15:41:38;6.43;;;4.47;;
55469;SDS011;41334;47.872;16.384;2022-07-25T15:44:40;11.95;;;4.72;;
55469;SDS011;41334;47.872;16.384;2022-07-25T15:47:41;5.35;;;4.40;;
55469;SDS011;41334;47.872;16.384;2022-07-25T15:50:50;5.03;;;4.53;;
55469;SDS011;41334;47.872;16.384;2022-07-25T15:53:52;6.47;;;4.65;;
55469;SDS011;41334;47.872;16.384;2022-07-25T15:56:54;4.63;;;3.92;;
55469;SDS011;41334;47.872;16.384;2022-07-25T15:59:56;5.15;;;4.30;;
55469;SDS011;41334;47.872;16.384;2022-07-25T16:02:58;6.93;;;4.57;;
55469;SDS011;41334;47.872;16.384;2022-07-25T16:06:00;8.98;;;4.85;;
55469;SDS011;41334;47.872;16.384;2022-07-25T16:09:04;5.88;;;5.05;;
55469;SDS011;41334;47.872;16.384;2022-07-25T16:12:07;7.35;;;4.75;;
55469;SDS011;41334;47.872;16.384;2022-07-25T16:15:10;5.43;;;4.53;;
55469;SDS011;41334;47.872;16.384;2022-07-25T16:18:12;5.38;;;4.80;;
55469;SDS011;41334;47.872;16.384;2022-07-25T16:21:14;9.68;;;4.90;;
55469;SDS011;41334;47.872;16.384;2022-07-25T16:24:16;5.63;;;4.60;;
55469;SDS011;41334;47.872;16.384;2022-07-25T16:27:17;8.77;;;4.47;;
55469;SDS011;41334;47.872;16.384;2022-07-25T16:30:19;5.70;;;4.53;;
55469;SDS011;41334;47.872;16.384;2022-07-25T16:33:21;7.57;;;4.50;;
55469;SDS011;41334;47.872;16.384;2022-07-25T16:36:23;4.78;;;4.28;;
55469;SDS011;41334;47.872;16.384;2022-07-25T16:39:25;5.63;;;4.70;;
55469;SDS011;41334;47.872;16.384;2022-07-25T16:42:27;6.82;;;4.90;;
55469;SDS011;41334;47.872;16.384;2022-07-25T16:45:29;5.05;;;4.50;;
55469;SDS011;41334;47.872;16.384;2022-07-25T16:48:31;6.97;;;5.05;;
55469;SDS011;41334;47.872;16.384;2022-07-25T16:51:33;5.40;;;4.55;;
55469;SDS011;41334;47.872;16.384;2022-07-25T16:54:37;8.50;;;4.68;;
55469;SDS011;41334;47.872;16.384;2022-07-25T16:57:39;5.72;;;5.00;;
55469;SDS011;41334;47.872;16.384;2022-07-25T17:00:41;5.20;;;4.70;;
55469;SDS011;41334;47.872;16.384;2022-07-25T17:03:43;11.10;;;5.10;;
55469;SDS011;41334;47.872;16.384;2022-07-25T17:06:44;8.93;;;4.80;;
55469;SDS011;41334;47.872;16.384;2022-07-25T17:09:46;5.72;;;4.93;;
55469;SDS011;41334;47.872;16.384;2022-07-25T17:12:48;7.68;;;4.70;;
55469;SDS011;41334;47.872;16.384;2022-07-25T17:15:50;11.25;;;5.18;;
55469;SDS011;41334;47.872;16.384;2022-07-25T17:18:52;5.28;;;4.78;;
55469;SDS011;41334;47.872;16.384;2022-07-25T17:21:54;4.78;;;4.25;;
55469;SDS011;41334;47.872;16.384;2022-07-25T17:24:56;5.03;;;4.53;;
55469;SDS011;41334;47.872;16.384;2022-07-25T17:27:57;5.75;;;4.85;;
55469;SDS011;41334;47.872;16.384;2022-07-25T17:30:59;5.03;;;4.53;;
55469;SDS011;41334;47.872;16.384;2022-07-25T17:34:01;6.15;;;4.57;;
55469;SDS011;41334;47.872;16.384;2022-07-25T17:37:04;5.00;;;4.35;;
55469;SDS011;41334;47.872;16.384;2022-07-25T17:40:07;5.80;;;5.00;;
55469;SDS011;41334;47.872;16.384;2022-07-25T17:43:09;8.07;;;4.82;;
55469;SDS011;41334;47.872;16.384;2022-07-25T17:46:11;6.28;;;4.60;;
55469;SDS011;41334;47.872;16.384;2022-07-25T17:49:14;6.90;;;4.57;;
55469;SDS011;41334;47.872;16.384;2022-07-25T17:52:16;5.55;;;4.97;;
55469;SDS011;41334;47.872;16.384;2022-07-25T17:55:18;5.57;;;4.60;;
55469;SDS011;41334;47.872;16.384;2022-07-25T17:58:23;6.43;;;4.80;;
55469;SDS011;41334;47.872;16.384;2022-07-25T18:01:25;7.95;;;4.88;;
55469;SDS011;41334;47.872;16.384;2022-07-25T18:04:27;7.25;;;5.10;;
55469;SDS011;41334;47.872;16.384;2022-07-25T18:07:29;8.60;;;4.80;;
55469;SDS011;41334;47.872;16.384;2022-07-25T18:10:31;6.35;;;4.53;;